sensor_id;sensor_type;location;lat;lon;timestamp;pressure;altitude;pressure_sealevel;temperature
77599;BMP280;66758;52.078;5.070;2023-06-14T00:00:31;101730.78;;;20.01
77599;BMP280;66758;52.078;5.070;2023-06-14T00:02:57;101724.47;;;19.72
77599;BMP280;66758;52.078;5.070;2023-06-14T00:05:23;101737.19;;;19.77
77599;BMP280;66758;52.078;5.070;2023-06-14T00:07:49;101731.59;;;19.70
77599;BMP280;66758;52.078;5.070;2023-06-14T00:10:18;101730.03;;;19.72
77599;BMP280;66758;52.078;5.070;2023-06-14T00:12:44;101728.41;;;19.78
77599;BMP280;66758;52.078;5.070;2023-06-14T00:15:10;101735.56;;;19.83
77599;BMP280;66758;52.078;5.070;2023-06-14T00:17:36;101733.59;;;19.80
77599;BMP280;66758;52.078;5.070;2023-06-14T00:20:03;101732.00;;;19.79
77599;BMP280;66758;52.078;5.070;2023-06-14T00:22:30;101730.41;;;19.99
77599;BMP280;66758;52.078;5.070;2023-06-14T00:24:56;101733.97;;;19.78
77599;BMP280;66758;52.078;5.070;2023-06-14T00:27:22;101733.19;;;19.85
77599;BMP280;66758;52.078;5.070;2023-06-14T00:29:47;101737.97;;;19.88
77599;BMP280;66758;52.078;5.070;2023-06-14T00:32:13;101736.78;;;19.75
77599;BMP280;66758;52.078;5.070;2023-06-14T00:34:38;101734.78;;;19.75
77599;BMP280;66758;52.078;5.070;2023-06-14T00:37:04;101728.81;;;19.70
77599;BMP280;66758;52.078;5.070;2023-06-14T00:39:30;101734.78;;;19.65
77599;BMP280;66758;52.078;5.070;2023-06-14T00:41:55;101744.31;;;19.67
77599;BMP280;66758;52.078;5.070;2023-06-14T00:44:21;101742.72;;;19.84
77599;BMP280;66758;52.078;5.070;2023-06-14T00:46:47;101737.97;;;19.81
77599;BMP280;66758;52.078;5.070;2023-06-14T00:49:14;101730.81;;;19.62
77599;BMP280;66758;52.078;5.070;2023-06-14T00:51:41;101747.50;;;19.80
77599;BMP280;66758;52.078;5.070;2023-06-14T00:54:07;101735.19;;;19.74
77599;BMP280;66758;52.078;5.070;2023-06-14T00:56:32;101738.75;;;19.60
77599;BMP280;66758;52.078;5.070;2023-06-14T00:58:58;101741.53;;;19.60
77599;BMP280;66758;52.078;5.070;2023-06-14T01:01:24;101733.19;;;19.57
77599;BMP280;66758;52.078;5.070;2023-06-14T01:03:49;101735.56;;;19.48
77599;BMP280;66758;52.078;5.070;2023-06-14T01:06:45;101735.19;;;19.67
77599;BMP280;66758;52.078;5.070;2023-06-14T01:11:53;101732.81;;;19.58
77599;BMP280;66758;52.078;5.070;2023-06-14T01:14:21;101743.53;;;19.46
77599;BMP280;66758;52.078;5.070;2023-06-14T01:16:47;101734.38;;;19.42
77599;BMP280;66758;52.078;5.070;2023-06-14T01:19:14;101743.50;;;19.35
77599;BMP280;66758;52.078;5.070;2023-06-14T01:21:39;101730.81;;;19.38
77599;BMP280;66758;52.078;5.070;2023-06-14T01:24:10;101734.34;;;19.34
77599;BMP280;66758;52.078;5.070;2023-06-14T01:26:37;101737.13;;;19.27
77599;BMP280;66758;52.078;5.070;2023-06-14T01:29:04;101733.94;;;19.15
77599;BMP280;66758;52.078;5.070;2023-06-14T01:31:29;101729.19;;;19.15
77599;BMP280;66758;52.078;5.070;2023-06-14T01:34:05;101738.69;;;19.18
77599;BMP280;66758;52.078;5.070;2023-06-14T01:36:30;101741.09;;;19.26
77599;BMP280;66758;52.078;5.070;2023-06-14T01:38:56;101741.47;;;19.14
77599;BMP280;66758;52.078;5.070;2023-06-14T01:41:24;101734.75;;;19.26
77599;BMP280;66758;52.078;5.070;2023-06-14T01:43:50;101733.19;;;19.28
77599;BMP280;66758;52.078;5.070;2023-06-14T01:46:16;101743.84;;;19.16
77599;BMP280;66758;52.078;5.070;2023-06-14T01:48:42;101740.25;;;19.01
77599;BMP280;66758;52.078;5.070;2023-06-14T01:51:08;101737.09;;;19.13
77599;BMP280;66758;52.078;5.070;2023-06-14T01:53:34;101741.06;;;19.05
77599;BMP280;66758;52.078;5.070;2023-06-14T01:55:59;101740.25;;;19.01
77599;BMP280;66758;52.078;5.070;2023-06-14T01:58:26;101742.28;;;19.11
77599;BMP280;66758;52.078;5.070;2023-06-14T02:00:52;101737.41;;;18.87
77599;BMP280;66758;52.078;5.070;2023-06-14T02:03:20;101732.66;;;18.87
77599;BMP280;66758;52.078;5.070;2023-06-14T02:05:46;101730.69;;;18.95
77599;BMP280;66758;52.078;5.070;2023-06-14T02:08:11;101736.63;;;18.86
77599;BMP280;66758;52.078;5.070;2023-06-14T02:10:37;101727.81;;;18.70
77599;BMP280;66758;52.078;5.070;2023-06-14T02:13:02;101737.38;;;18.76
77599;BMP280;66758;52.078;5.070;2023-06-14T02:15:28;101722.72;;;18.83
77599;BMP280;66758;52.078;5.070;2023-06-14T02:17:59;101723.41;;;18.59
77599;BMP280;66758;52.078;5.070;2023-06-14T02:20:25;101727.03;;;18.70
77599;BMP280;66758;52.078;5.070;2023-06-14T02:22:50;101723.47;;;18.76
77599;BMP280;66758;52.078;5.070;2023-06-14T02:25:16;101728.97;;;18.55
77599;BMP280;66758;52.078;5.070;2023-06-14T02:27:41;101725.78;;;18.57
77599;BMP280;66758;52.078;5.070;2023-06-14T02:30:07;101730.19;;;18.61
77599;BMP280;66758;52.078;5.070;2023-06-14T02:32:33;101731.75;;;18.62
77599;BMP280;66758;52.078;5.070;2023-06-14T02:35:01;101726.88;;;18.38
77599;BMP280;66758;52.078;5.070;2023-06-14T02:37:27;101735.16;;;18.34
77599;BMP280;66758;52.078;5.070;2023-06-14T02:39:52;101732.03;;;18.39
77599;BMP280;66758;52.078;5.070;2023-06-14T02:42:18;101730.50;;;18.46
77599;BMP280;66758;52.078;5.070;2023-06-14T02:44:43;101732.00;;;18.36
77599;BMP280;66758;52.078;5.070;2023-06-14T02:47:10;101733.22;;;18.38
77599;BMP280;66758;52.078;5.070;2023-06-14T02:49:35;101743.91;;;18.33
77599;BMP280;66758;52.078;5.070;2023-06-14T02:52:01;101739.88;;;18.23
77599;BMP280;66758;52.078;5.070;2023-06-14T02:54:27;101738.72;;;18.28
77599;BMP280;66758;52.078;5.070;2023-06-14T02:56:53;101740.59;;;18.17
77599;BMP280;66758;52.078;5.070;2023-06-14T02:59:18;101740.69;;;18.27
77599;BMP280;66758;52.078;5.070;2023-06-14T03:01:44;101740.63;;;18.20
77599;BMP280;66758;52.078;5.070;2023-06-14T03:04:10;101747.34;;;18.19
77599;BMP280;66758;52.078;5.070;2023-06-14T03:06:36;101748.91;;;18.13
77599;BMP280;66758;52.078;5.070;2023-06-14T03:09:03;101745.31;;;18.09
77599;BMP280;66758;52.078;5.070;2023-06-14T03:11:31;101749.63;;;18.03
77599;BMP280;66758;52.078;5.070;2023-06-14T03:13:57;101752.50;;;18.17
77599;BMP280;66758;52.078;5.070;2023-06-14T03:16:22;101749.97;;;17.98
77599;BMP280;66758;52.078;5.070;2023-06-14T03:18:52;101761.06;;;17.98
77599;BMP280;66758;52.078;5.070;2023-06-14T03:21:19;101763.03;;;17.94
77599;BMP280;66758;52.078;5.070;2023-06-14T03:23:45;101768.09;;;17.85
77599;BMP280;66758;52.078;5.070;2023-06-14T03:26:12;101756.66;;;17.90
77599;BMP280;66758;52.078;5.070;2023-06-14T03:28:39;101766.97;;;17.93
77599;BMP280;66758;52.078;5.070;2023-06-14T03:31:05;101773.16;;;17.76
77599;BMP280;66758;52.078;5.070;2023-06-14T03:33:30;101767.22;;;17.77
77599;BMP280;66758;52.078;5.070;2023-06-14T03:35:56;101770.69;;;17.67
77599;BMP280;66758;52.078;5.070;2023-06-14T03:38:22;101783.03;;;17.73
77599;BMP280;66758;52.078;5.070;2023-06-14T03:40:47;101775.06;;;17.68
77599;BMP280;66758;52.078;5.070;2023-06-14T03:43:13;101778.31;;;17.77
77599;BMP280;66758;52.078;5.070;2023-06-14T03:45:38;101788.44;;;17.59
77599;BMP280;66758;52.078;5.070;2023-06-14T03:48:04;101790.09;;;17.67
77599;BMP280;66758;52.078;5.070;2023-06-14T03:50:32;101786.97;;;17.72
77599;BMP280;66758;52.078;5.070;2023-06-14T03:52:58;101783.34;;;17.65
77599;BMP280;66758;52.078;5.070;2023-06-14T03:55:23;101782.38;;;17.46
77599;BMP280;66758;52.078;5.070;2023-06-14T03:57:51;101798.25;;;17.53
77599;BMP280;66758;52.078;5.070;2023-06-14T04:00:17;101792.59;;;17.42
77599;BMP280;66758;52.078;5.070;2023-06-14T04:02:43;101794.31;;;17.54
77599;BMP280;66758;52.078;5.070;2023-06-14T04:05:12;101792.69;;;17.49
77599;BMP280;66758;52.078;5.070;2023-06-14T04:07:38;101799.38;;;17.45
77599;BMP280;66758;52.078;5.070;2023-06-14T04:10:11;101797.75;;;17.40
77599;BMP280;66758;52.078;5.070;2023-06-14T04:12:37;101806.44;;;17.39
77599;BMP280;66758;52.078;5.070;2023-06-14T04:15:03;101801.56;;;17.29
77599;BMP280;66758;52.078;5.070;2023-06-14T04:17:31;101804.28;;;17.25
77599;BMP280;66758;52.078;5.070;2023-06-14T04:20:08;101812.59;;;17.25
77599;BMP280;66758;52.078;5.070;2023-06-14T04:22:34;101802.03;;;17.34
77599;BMP280;66758;52.078;5.070;2023-06-14T04:25:07;101810.03;;;17.43
77599;BMP280;66758;52.078;5.070;2023-06-14T04:27:33;101815.44;;;17.32
77599;BMP280;66758;52.078;5.070;2023-06-14T04:30:02;101818.97;;;17.29
77599;BMP280;66758;52.078;5.070;2023-06-14T04:32:28;101814.59;;;17.28
77599;BMP280;66758;52.078;5.070;2023-06-14T04:35:07;101818.28;;;17.36
77599;BMP280;66758;52.078;5.070;2023-06-14T04:37:32;101825.84;;;17.42
77599;BMP280;66758;52.078;5.070;2023-06-14T04:39:58;101825.34;;;17.33
77599;BMP280;66758;52.078;5.070;2023-06-14T04:42:23;101827.81;;;17.42
77599;BMP280;66758;52.078;5.070;2023-06-14T04:44:51;101824.00;;;17.20
77599;BMP280;66758;52.078;5.070;2023-06-14T04:47:23;101834.47;;;17.34
77599;BMP280;66758;52.078;5.070;2023-06-14T04:49:56;101828.53;;;17.32
77599;BMP280;66758;52.078;5.070;2023-06-14T04:52:22;101828.25;;;17.44
77599;BMP280;66758;52.078;5.070;2023-06-14T04:54:48;101824.78;;;17.50
77599;BMP280;66758;52.078;5.070;2023-06-14T04:57:14;101824.28;;;17.41
77599;BMP280;66758;52.078;5.070;2023-06-14T04:59:44;101822.63;;;17.70
77599;BMP280;66758;52.078;5.070;2023-06-14T05:02:10;101832.66;;;17.48
77599;BMP280;66758;52.078;5.070;2023-06-14T05:04:36;101829.69;;;17.68
77599;BMP280;66758;52.078;5.070;2023-06-14T05:07:09;101814.94;;;17.97
77599;BMP280;66758;52.078;5.070;2023-06-14T05:09:35;101812.50;;;17.92
77599;BMP280;66758;52.078;5.070;2023-06-14T05:12:01;101829.03;;;17.81
77599;BMP280;66758;52.078;5.070;2023-06-14T05:14:26;101830.19;;;17.77
77599;BMP280;66758;52.078;5.070;2023-06-14T05:16:52;101827.00;;;17.75
77599;BMP280;66758;52.078;5.070;2023-06-14T05:19:18;101838.50;;;17.77
77599;BMP280;66758;52.078;5.070;2023-06-14T05:21:46;101831.94;;;17.92
77599;BMP280;66758;52.078;5.070;2023-06-14T05:24:12;101828.28;;;17.81
77599;BMP280;66758;52.078;5.070;2023-06-14T05:26:38;101839.44;;;17.91
77599;BMP280;66758;52.078;5.070;2023-06-14T05:29:03;101846.13;;;17.87
77599;BMP280;66758;52.078;5.070;2023-06-14T05:31:28;101834.78;;;17.99
77599;BMP280;66758;52.078;5.070;2023-06-14T05:33:54;101842.78;;;18.11
77599;BMP280;66758;52.078;5.070;2023-06-14T05:36:20;101839.47;;;18.39
77599;BMP280;66758;52.078;5.070;2023-06-14T05:38:48;101832.22;;;18.24
77599;BMP280;66758;52.078;5.070;2023-06-14T05:41:14;101837.09;;;17.93
77599;BMP280;66758;52.078;5.070;2023-06-14T05:43:39;101837.72;;;18.20
77599;BMP280;66758;52.078;5.070;2023-06-14T05:46:05;101833.41;;;18.26
77599;BMP280;66758;52.078;5.070;2023-06-14T05:48:31;101844.63;;;18.40
77599;BMP280;66758;52.078;5.070;2023-06-14T05:50:56;101846.72;;;18.54
77599;BMP280;66758;52.078;5.070;2023-06-14T05:53:22;101837.75;;;18.75
77599;BMP280;66758;52.078;5.070;2023-06-14T05:55:49;101851.81;;;18.49
77599;BMP280;66758;52.078;5.070;2023-06-14T05:58:15;101851.81;;;18.49
77599;BMP280;66758;52.078;5.070;2023-06-14T06:00:42;101846.81;;;18.72
77599;BMP280;66758;52.078;5.070;2023-06-14T06:03:08;101852.84;;;18.84
77599;BMP280;66758;52.078;5.070;2023-06-14T06:05:34;101854.41;;;18.78
77599;BMP280;66758;52.078;5.070;2023-06-14T06:08:00;101849.91;;;19.28
77599;BMP280;66758;52.078;5.070;2023-06-14T06:10:27;101859.78;;;19.29
77599;BMP280;66758;52.078;5.070;2023-06-14T06:12:52;101845.19;;;19.54
77599;BMP280;66758;52.078;5.070;2023-06-14T06:15:19;101851.56;;;19.58
77599;BMP280;66758;52.078;5.070;2023-06-14T06:17:45;101852.31;;;19.41
77599;BMP280;66758;52.078;5.070;2023-06-14T06:20:11;101854.34;;;19.58
77599;BMP280;66758;52.078;5.070;2023-06-14T06:22:37;101865.47;;;19.65
77599;BMP280;66758;52.078;5.070;2023-06-14T06:25:03;101856.38;;;19.93
77599;BMP280;66758;52.078;5.070;2023-06-14T06:27:28;101858.38;;;19.99
77599;BMP280;66758;52.078;5.070;2023-06-14T06:29:53;101854.38;;;20.25
77599;BMP280;66758;52.078;5.070;2023-06-14T06:32:19;101858.78;;;19.98
77599;BMP280;66758;52.078;5.070;2023-06-14T06:34:44;101848.81;;;20.21
77599;BMP280;66758;52.078;5.070;2023-06-14T06:37:10;101865.13;;;20.12
77599;BMP280;66758;52.078;5.070;2023-06-14T06:39:36;101864.72;;;20.49
77599;BMP280;66758;52.078;5.070;2023-06-14T06:42:01;101865.88;;;20.59
77599;BMP280;66758;52.078;5.070;2023-06-14T06:44:27;101865.09;;;20.62
77599;BMP280;66758;52.078;5.070;2023-06-14T06:46:52;101871.34;;;20.84
77599;BMP280;66758;52.078;5.070;2023-06-14T06:49:18;101879.72;;;20.87
77599;BMP280;66758;52.078;5.070;2023-06-14T06:52:05;101879.28;;;20.92
77599;BMP280;66758;52.078;5.070;2023-06-14T06:54:32;101876.94;;;20.80
77599;BMP280;66758;52.078;5.070;2023-06-14T06:56:58;101877.63;;;21.09
77599;BMP280;66758;52.078;5.070;2023-06-14T06:59:24;101875.16;;;21.25
77599;BMP280;66758;52.078;5.070;2023-06-14T07:01:49;101885.38;;;21.53
77599;BMP280;66758;52.078;5.070;2023-06-14T07:04:16;101881.50;;;21.36
77599;BMP280;66758;52.078;5.070;2023-06-14T07:06:42;101889.06;;;21.39
77599;BMP280;66758;52.078;5.070;2023-06-14T07:09:08;101884.75;;;21.20
77599;BMP280;66758;52.078;5.070;2023-06-14T07:11:38;101893.41;;;21.44
77599;BMP280;66758;52.078;5.070;2023-06-14T07:14:04;101890.94;;;21.60
77599;BMP280;66758;52.078;5.070;2023-06-14T07:16:30;101895.75;;;21.56
77599;BMP280;66758;52.078;5.070;2023-06-14T07:18:55;101903.47;;;21.89
77599;BMP280;66758;52.078;5.070;2023-06-14T07:21:21;101906.69;;;21.84
77599;BMP280;66758;52.078;5.070;2023-06-14T07:23:48;101904.25;;;21.93
77599;BMP280;66758;52.078;5.070;2023-06-14T07:26:13;101915.31;;;22.07
77599;BMP280;66758;52.078;5.070;2023-06-14T07:28:39;101914.19;;;21.94
77599;BMP280;66758;52.078;5.070;2023-06-14T07:31:05;101912.09;;;22.09
77599;BMP280;66758;52.078;5.070;2023-06-14T07:33:30;101913.66;;;22.13
77599;BMP280;66758;52.078;5.070;2023-06-14T07:35:56;101913.22;;;22.19
77599;BMP280;66758;52.078;5.070;2023-06-14T07:38:23;101917.19;;;22.62
77599;BMP280;66758;52.078;5.070;2023-06-14T07:40:48;101923.34;;;22.84
77599;BMP280;66758;52.078;5.070;2023-06-14T07:43:14;101922.25;;;22.74
77599;BMP280;66758;52.078;5.070;2023-06-14T07:45:39;101929.53;;;23.02
77599;BMP280;66758;52.078;5.070;2023-06-14T07:48:05;101929.44;;;23.09
77599;BMP280;66758;52.078;5.070;2023-06-14T07:50:31;101927.84;;;23.08
77599;BMP280;66758;52.078;5.070;2023-06-14T07:52:56;101941.31;;;23.17
77599;BMP280;66758;52.078;5.070;2023-06-14T07:55:22;101944.44;;;23.22
77599;BMP280;66758;52.078;5.070;2023-06-14T07:57:47;101949.78;;;23.40
77599;BMP280;66758;52.078;5.070;2023-06-14T08:00:13;101930.50;;;23.49
77599;BMP280;66758;52.078;5.070;2023-06-14T08:02:44;101939.53;;;23.87
77599;BMP280;66758;52.078;5.070;2023-06-14T08:05:10;101935.34;;;23.45
77599;BMP280;66758;52.078;5.070;2023-06-14T08:07:39;101941.16;;;23.57
77599;BMP280;66758;52.078;5.070;2023-06-14T08:10:06;101928.88;;;24.01
77599;BMP280;66758;52.078;5.070;2023-06-14T08:12:32;101928.56;;;23.69
77599;BMP280;66758;52.078;5.070;2023-06-14T08:14:59;101939.41;;;23.67
77599;BMP280;66758;52.078;5.070;2023-06-14T08:17:24;101932.28;;;23.89
77599;BMP280;66758;52.078;5.070;2023-06-14T08:19:50;101932.81;;;23.81
77599;BMP280;66758;52.078;5.070;2023-06-14T08:22:15;101931.53;;;24.08
77599;BMP280;66758;52.078;5.070;2023-06-14T08:24:41;101942.69;;;23.89
77599;BMP280;66758;52.078;5.070;2023-06-14T08:27:07;101925.34;;;23.97
77599;BMP280;66758;52.078;5.070;2023-06-14T08:29:33;101922.97;;;23.96
77599;BMP280;66758;52.078;5.070;2023-06-14T08:31:58;101931.38;;;24.19
77599;BMP280;66758;52.078;5.070;2023-06-14T08:34:24;101938.31;;;24.11
77599;BMP280;66758;52.078;5.070;2023-06-14T08:36:52;101936.91;;;24.46
77599;BMP280;66758;52.078;5.070;2023-06-14T08:39:18;101937.78;;;24.82
77599;BMP280;66758;52.078;5.070;2023-06-14T08:41:47;101933.19;;;24.92
77599;BMP280;66758;52.078;5.070;2023-06-14T08:44:16;101927.97;;;25.10
77599;BMP280;66758;52.078;5.070;2023-06-14T08:46:42;101924.38;;;25.29
77599;BMP280;66758;52.078;5.070;2023-06-14T08:49:13;101930.94;;;25.23
77599;BMP280;66758;52.078;5.070;2023-06-14T08:51:42;101935.13;;;25.31
77599;BMP280;66758;52.078;5.070;2023-06-14T08:54:11;101936.44;;;25.78
77599;BMP280;66758;52.078;5.070;2023-06-14T08:56:40;101924.94;;;26.17
77599;BMP280;66758;52.078;5.070;2023-06-14T08:59:07;101926.53;;;26.18
77599;BMP280;66758;52.078;5.070;2023-06-14T09:01:34;101926.63;;;26.44
77599;BMP280;66758;52.078;5.070;2023-06-14T09:03:59;101927.41;;;26.15
77599;BMP280;66758;52.078;5.070;2023-06-14T09:06:25;101925.84;;;25.34
77599;BMP280;66758;52.078;5.070;2023-06-14T09:08:54;101937.75;;;26.35
77599;BMP280;66758;52.078;5.070;2023-06-14T09:11:21;101927.28;;;26.35
77599;BMP280;66758;52.078;5.070;2023-06-14T09:13:49;101934.50;;;26.65
77599;BMP280;66758;52.078;5.070;2023-06-14T09:16:16;101937.41;;;26.61
77599;BMP280;66758;52.078;5.070;2023-06-14T09:18:44;101929.44;;;26.85
77599;BMP280;66758;52.078;5.070;2023-06-14T09:21:11;101939.59;;;26.95
77599;BMP280;66758;52.078;5.070;2023-06-14T09:23:45;101945.25;;;27.20
77599;BMP280;66758;52.078;5.070;2023-06-14T09:26:12;101938.91;;;26.91
77599;BMP280;66758;52.078;5.070;2023-06-14T09:28:56;101940.19;;;27.03
77599;BMP280;66758;52.078;5.070;2023-06-14T09:31:22;101943.03;;;27.28
77599;BMP280;66758;52.078;5.070;2023-06-14T09:33:49;101933.06;;;27.74
77599;BMP280;66758;52.078;5.070;2023-06-14T09:36:23;101947.41;;;27.29
77599;BMP280;66758;52.078;5.070;2023-06-14T09:38:56;101934.22;;;28.32
77599;BMP280;66758;52.078;5.070;2023-06-14T09:41:39;101949.09;;;27.52
77599;BMP280;66758;52.078;5.070;2023-06-14T09:44:06;101947.16;;;27.61
77599;BMP280;66758;52.078;5.070;2023-06-14T09:46:33;101953.22;;;28.19
77599;BMP280;66758;52.078;5.070;2023-06-14T09:48:59;101943.13;;;28.31
77599;BMP280;66758;52.078;5.070;2023-06-14T09:51:25;101942.03;;;28.72
77599;BMP280;66758;52.078;5.070;2023-06-14T09:53:52;101939.75;;;28.58
77599;BMP280;66758;52.078;5.070;2023-06-14T09:56:37;101936.44;;;29.61
77599;BMP280;66758;52.078;5.070;2023-06-14T09:59:05;101942.53;;;29.68
77599;BMP280;66758;52.078;5.070;2023-06-14T10:01:35;101947.75;;;27.56
77599;BMP280;66758;52.078;5.070;2023-06-14T10:04:06;101948.03;;;26.54
77599;BMP280;66758;52.078;5.070;2023-06-14T10:06:35;101947.06;;;27.52
77599;BMP280;66758;52.078;5.070;2023-06-14T10:09:04;101934.13;;;26.63
77599;BMP280;66758;52.078;5.070;2023-06-14T10:11:30;101942.25;;;26.16
77599;BMP280;66758;52.078;5.070;2023-06-14T10:13:57;101941.53;;;27.11
77599;BMP280;66758;52.078;5.070;2023-06-14T10:16:56;101942.13;;;28.90
77599;BMP280;66758;52.078;5.070;2023-06-14T10:19:45;101941.28;;;28.80
77599;BMP280;66758;52.078;5.070;2023-06-14T10:22:18;101932.66;;;29.55
77599;BMP280;66758;52.078;5.070;2023-06-14T10:24:45;101937.19;;;29.61
77599;BMP280;66758;52.078;5.070;2023-06-14T10:27:14;101927.50;;;29.98
77599;BMP280;66758;52.078;5.070;2023-06-14T10:32:25;101921.66;;;30.80
77599;BMP280;66758;52.078;5.070;2023-06-14T10:37:23;101935.66;;;29.20
77599;BMP280;66758;52.078;5.070;2023-06-14T10:39:52;101941.28;;;29.60
77599;BMP280;66758;52.078;5.070;2023-06-14T10:42:21;101956.28;;;27.78
77599;BMP280;66758;52.078;5.070;2023-06-14T10:44:52;101939.81;;;29.46
77599;BMP280;66758;52.078;5.070;2023-06-14T10:47:33;101925.41;;;28.74
77599;BMP280;66758;52.078;5.070;2023-06-14T10:50:10;101935.44;;;30.54
77599;BMP280;66758;52.078;5.070;2023-06-14T10:52:41;101939.22;;;29.52
77599;BMP280;66758;52.078;5.070;2023-06-14T10:57:42;101933.47;;;30.88
77599;BMP280;66758;52.078;5.070;2023-06-14T11:00:09;101938.66;;;31.13
77599;BMP280;66758;52.078;5.070;2023-06-14T11:05:52;101936.28;;;27.26
77599;BMP280;66758;52.078;5.070;2023-06-14T11:11:06;101935.88;;;31.28
77599;BMP280;66758;52.078;5.070;2023-06-14T11:13:32;101936.59;;;31.13
77599;BMP280;66758;52.078;5.070;2023-06-14T11:15:57;101924.19;;;31.11
77599;BMP280;66758;52.078;5.070;2023-06-14T11:18:23;101922.88;;;30.97
77599;BMP280;66758;52.078;5.070;2023-06-14T11:20:55;101928.25;;;31.66
77599;BMP280;66758;52.078;5.070;2023-06-14T11:23:21;101921.00;;;32.48
77599;BMP280;66758;52.078;5.070;2023-06-14T11:25:54;101916.31;;;31.15
77599;BMP280;66758;52.078;5.070;2023-06-14T11:28:19;101928.00;;;32.08
77599;BMP280;66758;52.078;5.070;2023-06-14T11:30:47;101919.66;;;33.13
77599;BMP280;66758;52.078;5.070;2023-06-14T11:33:17;101924.41;;;32.08
77599;BMP280;66758;52.078;5.070;2023-06-14T11:35:43;101910.66;;;31.77
77599;BMP280;66758;52.078;5.070;2023-06-14T11:38:10;101919.91;;;30.92
77599;BMP280;66758;52.078;5.070;2023-06-14T11:40:37;101917.13;;;29.95
77599;BMP280;66758;52.078;5.070;2023-06-14T11:43:05;101916.47;;;31.35
77599;BMP280;66758;52.078;5.070;2023-06-14T11:45:38;101924.50;;;28.12
77599;BMP280;66758;52.078;5.070;2023-06-14T11:48:04;101924.41;;;27.68
77599;BMP280;66758;52.078;5.070;2023-06-14T11:50:30;101906.13;;;29.79
77599;BMP280;66758;52.078;5.070;2023-06-14T11:52:59;101915.31;;;31.65
77599;BMP280;66758;52.078;5.070;2023-06-14T11:55:36;101917.97;;;29.29
77599;BMP280;66758;52.078;5.070;2023-06-14T11:58:02;101906.53;;;31.16
77599;BMP280;66758;52.078;5.070;2023-06-14T12:00:29;101919.16;;;29.10
77599;BMP280;66758;52.078;5.070;2023-06-14T12:02:55;101935.34;;;28.01
77599;BMP280;66758;52.078;5.070;2023-06-14T12:05:22;101916.59;;;28.41
77599;BMP280;66758;52.078;5.070;2023-06-14T12:07:49;101914.66;;;32.23
77599;BMP280;66758;52.078;5.070;2023-06-14T12:10:16;101905.19;;;29.64
77599;BMP280;66758;52.078;5.070;2023-06-14T12:12:42;101916.69;;;29.21
77599;BMP280;66758;52.078;5.070;2023-06-14T12:15:08;101911.84;;;31.85
77599;BMP280;66758;52.078;5.070;2023-06-14T12:17:36;101910.50;;;32.68
77599;BMP280;66758;52.078;5.070;2023-06-14T12:20:08;101916.63;;;30.33
77599;BMP280;66758;52.078;5.070;2023-06-14T12:22:39;101911.25;;;32.83
77599;BMP280;66758;52.078;5.070;2023-06-14T12:25:05;101908.56;;;34.32
77599;BMP280;66758;52.078;5.070;2023-06-14T12:27:31;101907.25;;;33.76
77599;BMP280;66758;52.078;5.070;2023-06-14T12:30:03;101912.31;;;34.18
77599;BMP280;66758;52.078;5.070;2023-06-14T12:32:30;101928.44;;;30.32
77599;BMP280;66758;52.078;5.070;2023-06-14T12:34:55;101912.09;;;30.18
77599;BMP280;66758;52.078;5.070;2023-06-14T12:37:21;101918.69;;;29.96
77599;BMP280;66758;52.078;5.070;2023-06-14T12:39:47;101906.44;;;31.34
77599;BMP280;66758;52.078;5.070;2023-06-14T12:42:12;101901.84;;;32.77
77599;BMP280;66758;52.078;5.070;2023-06-14T12:44:39;101911.94;;;33.79
77599;BMP280;66758;52.078;5.070;2023-06-14T12:47:07;101914.25;;;32.45
77599;BMP280;66758;52.078;5.070;2023-06-14T12:49:33;101923.41;;;32.69
77599;BMP280;66758;52.078;5.070;2023-06-14T12:51:58;101923.09;;;30.16
77599;BMP280;66758;52.078;5.070;2023-06-14T12:54:24;101924.97;;;32.56
77599;BMP280;66758;52.078;5.070;2023-06-14T12:56:51;101924.41;;;32.08
77599;BMP280;66758;52.078;5.070;2023-06-14T12:59:17;101921.97;;;32.94
77599;BMP280;66758;52.078;5.070;2023-06-14T13:01:43;101900.78;;;34.01
77599;BMP280;66758;52.078;5.070;2023-06-14T13:04:10;101904.59;;;33.47
77599;BMP280;66758;52.078;5.070;2023-06-14T13:06:35;101925.09;;;30.51
77599;BMP280;66758;52.078;5.070;2023-06-14T13:09:01;101915.03;;;30.92
77599;BMP280;66758;52.078;5.070;2023-06-14T13:11:26;101902.13;;;35.27
77599;BMP280;66758;52.078;5.070;2023-06-14T13:13:52;101906.94;;;36.02
77599;BMP280;66758;52.078;5.070;2023-06-14T13:16:18;101897.25;;;35.39
77599;BMP280;66758;52.078;5.070;2023-06-14T13:18:43;101908.88;;;35.35
77599;BMP280;66758;52.078;5.070;2023-06-14T13:21:09;101913.34;;;34.88
77599;BMP280;66758;52.078;5.070;2023-06-14T13:23:34;101926.78;;;34.14
77599;BMP280;66758;52.078;5.070;2023-06-14T13:26:00;101928.00;;;31.08
77599;BMP280;66758;52.078;5.070;2023-06-14T13:28:26;101914.63;;;34.14
77599;BMP280;66758;52.078;5.070;2023-06-14T13:30:53;101907.34;;;35.45
77599;BMP280;66758;52.078;5.070;2023-06-14T13:33:20;101914.88;;;34.84
77599;BMP280;66758;52.078;5.070;2023-06-14T13:35:52;101926.06;;;31.61
77599;BMP280;66758;52.078;5.070;2023-06-14T13:38:20;101931.75;;;31.61
77599;BMP280;66758;52.078;5.070;2023-06-14T13:40:45;101922.31;;;30.06
77599;BMP280;66758;52.078;5.070;2023-06-14T13:43:11;101919.78;;;33.44
77599;BMP280;66758;52.078;5.070;2023-06-14T13:45:37;101904.56;;;35.73
77599;BMP280;66758;52.078;5.070;2023-06-14T13:48:03;101917.81;;;35.82
77599;BMP280;66758;52.078;5.070;2023-06-14T13:50:28;101922.13;;;32.70
77599;BMP280;66758;52.078;5.070;2023-06-14T13:52:54;101923.69;;;29.56
77599;BMP280;66758;52.078;5.070;2023-06-14T13:55:19;101913.25;;;33.58
77599;BMP280;66758;52.078;5.070;2023-06-14T13:57:46;101925.56;;;32.60
77599;BMP280;66758;52.078;5.070;2023-06-14T14:00:12;101916.72;;;31.84
77599;BMP280;66758;52.078;5.070;2023-06-14T14:02:38;101905.22;;;34.70
77599;BMP280;66758;52.078;5.070;2023-06-14T14:05:05;101908.94;;;32.38
77599;BMP280;66758;52.078;5.070;2023-06-14T14:07:32;101903.84;;;33.98
77599;BMP280;66758;52.078;5.070;2023-06-14T14:09:58;101904.97;;;35.27
77599;BMP280;66758;52.078;5.070;2023-06-14T14:12:23;101903.75;;;35.56